Time;durP1;ratioP1;P1;durP2;ratioP2;P2;SDS_P1;SDS_P2;PMS_P1;PMS_P2;Temp;Humidity;BMP_temperature;BMP_pressure;BME280_temperature;BME280_humidity;BME280_pressure;Samples;Min_cycle;Max_cycle;Signal;HPM_P1;HPM_P2
2024/02/27 00:02:08;;;;;;;;;;;;;;;7.53;100.00;95433.50;5104512;28;19945;-68
2024/02/27 00:04:34;;;;;;;;;;;;;;;7.53;100.00;95441.31;5104018;28;20000;-68
2024/02/27 00:07:00;;;;;;;;;;;;;;;7.53;100.00;95451.75;5104632;28;19930;-68
2024/02/27 00:09:26;;;;;;;;;;;;;;;7.54;100.00;95457.78;5104722;28;20249;-72
2024/02/27 00:11:53;;;;;;;;;;;;;;;7.54;100.00;95460.41;5103816;28;20243;-76
2024/02/27 00:14:19;;;;;;;;;;;;;;;7.55;100.00;95464.56;5085807;28;19947;-76
2024/02/27 00:16:45;;;;;;;;;;;;;;;7.55;100.00;95461.97;5103811;28;19936;-75
2024/02/27 00:19:10;;;;;;;;;;;;;;;7.56;100.00;95481.03;5103775;28;19942;-76
2024/02/27 00:21:36;;;;;;;;;;;;;;;7.55;100.00;95477.63;5104297;28;19938;-76
2024/02/27 00:24:02;;;;;;;;;;;;;;;7.57;100.00;95470.38;5103725;28;19927;-76
2024/02/27 00:26:28;;;;;;;;;;;;;;;7.55;100.00;95469.81;5104005;28;19938;-83
2024/02/27 00:28:54;;;;;;;;;;;;;;;7.56;100.00;95476.63;5104433;28;20244;-69
2024/02/27 00:31:20;;;;;;;;;;;;;;;7.57;100.00;95480.81;5085815;28;19936;-69
2024/02/27 00:33:46;;;;;;;;;;;;;;;7.56;100.00;95487.06;5103706;28;20181;-69
2024/02/27 00:36:11;;;;;;;;;;;;;;;7.56;100.00;95494.06;5103728;28;19937;-69
2024/02/27 00:38:37;;;;;;;;;;;;;;;7.56;100.00;95501.88;5108120;28;19933;-69
2024/02/27 00:41:04;;;;;;;;;;;;;;;7.57;100.00;95504.28;5108279;28;19957;-69
2024/02/27 00:43:30;;;;;;;;;;;;;;;7.57;100.00;95512.13;5107422;28;19939;-69
2024/02/27 00:45:56;;;;;;;;;;;;;;;7.57;100.00;95508.72;5108068;28;19934;-72
2024/02/27 00:48:22;;;;;;;;;;;;;;;7.56;100.00;95502.72;5107788;28;19966;-67
2024/02/27 00:50:48;;;;;;;;;;;;;;;7.57;100.00;95506.91;5107303;28;19936;-68
2024/02/27 00:53:14;;;;;;;;;;;;;;;7.55;100.00;95508.94;5107666;28;19943;-68
2024/02/27 00:55:40;;;;;;;;;;;;;;;7.53;100.00;95503.94;5107426;28;19938;-67
2024/02/27 00:58:05;;;;;;;;;;;;;;;7.52;100.00;95507.56;5107255;28;19999;-67
2024/02/27 01:00:31;;;;;;;;;;;;;;;7.51;100.00;95511.19;5107593;28;20066;-67
2024/02/27 01:02:57;;;;;;;;;;;;;;;7.52;100.00;95512.78;5107047;28;19935;-68
2024/02/27 01:05:23;;;;;;;;;;;;;;;7.53;100.00;95508.34;5107096;28;19973;-69
2024/02/27 01:07:49;;;;;;;;;;;;;;;7.53;100.00;95510.97;5107138;28;19952;-75
2024/02/27 01:10:15;;;;;;;;;;;;;;;7.52;100.00;95510.19;5107694;28;19960;-74
2024/02/27 01:12:40;;;;;;;;;;;;;;;7.51;100.00;95505.97;5106885;28;19941;-74
2024/02/27 01:15:07;;;;;;;;;;;;;;;7.51;100.00;95515.59;5107076;28;19941;-73
2024/02/27 01:17:32;;;;;;;;;;;;;;;7.48;100.00;95511.63;5106832;28;19932;-74
2024/02/27 01:19:58;;;;;;;;;;;;;;;7.47;100.00;95510.03;5107240;28;19943;-74
2024/02/27 01:22:33;;;;;;;;;;;;;;;7.47;100.00;95504.03;5106694;28;19943;-75
2024/02/27 01:24:59;;;;;;;;;;;;;;;7.45;100.00;95506.06;5106701;28;19934;-73
2024/02/27 01:27:25;;;;;;;;;;;;;;;7.44;100.00;95499.25;5088546;28;20144;-67
2024/02/27 01:29:52;;;;;;;;;;;;;;;7.43;100.00;95498.47;5107083;28;19938;-68
2024/02/27 01:32:17;;;;;;;;;;;;;;;7.44;100.00;95504.47;5106469;28;19941;-68
2024/02/27 01:34:43;;;;;;;;;;;;;;;7.41;100.00;95499.69;5106468;28;19975;-67
2024/02/27 01:37:09;;;;;;;;;;;;;;;7.40;100.00;95490.28;5107196;28;20202;-67
2024/02/27 01:39:35;;;;;;;;;;;;;;;7.39;100.00;95484.28;5106337;28;20127;-68
2024/02/27 01:42:01;;;;;;;;;;;;;;;7.40;100.00;95492.91;5106357;28;19943;-68
2024/02/27 01:44:27;;;;;;;;;;;;;;;7.40;100.00;95498.09;5106313;28;19942;-74
2024/02/27 01:46:53;;;;;;;;;;;;;;;7.38;100.00;95489.72;5106234;28;19935;-74
2024/02/27 01:49:19;;;;;;;;;;;;;;;7.38;100.00;95484.50;5106373;28;19974;-74
2024/02/27 01:51:46;;;;;;;;;;;;;;;7.39;100.00;95486.06;5106167;28;19973;-72
2024/02/27 01:54:15;;;;;;;;;;;;;;;7.39;100.00;95493.91;5106088;28;20146;-73
2024/02/27 01:56:41;;;;;;;;;;;;;;;7.37;100.00;95488.09;5106067;28;19940;-73
2024/02/27 01:59:08;;;;;;;;;;;;;;;7.35;100.00;95492.75;5106067;28;20152;-76
2024/02/27 02:01:35;;;;;;;;;;;;;;;7.33;100.00;95492.97;5105963;28;19954;-68
2024/02/27 02:04:02;;;;;;;;;;;;;;;7.32;100.00;95507.81;5105841;28;19935;-81
2024/02/27 02:06:28;;;;;;;;;;;;;;;7.30;100.00;95502.03;5105862;28;19934;-86
2024/02/27 02:08:54;;;;;;;;;;;;;;;7.26;100.00;95506.09;5105663;28;19966;-87
2024/02/27 02:11:20;;;;;;;;;;;;;;;7.24;100.00;95509.94;5106001;28;19932;-87
2024/02/27 02:13:46;;;;;;;;;;;;;;;7.19;100.00;95518.41;5106435;28;19930;-87
2024/02/27 02:16:12;;;;;;;;;;;;;;;7.17;100.00;95519.66;5106462;28;19957;-86
2024/02/27 02:18:37;;;;;;;;;;;;;;;7.15;100.00;95532.13;5105652;28;19942;-73
2024/02/27 02:21:03;;;;;;;;;;;;;;;7.11;100.00;95521.31;5105540;28;19935;-68
2024/02/27 02:23:29;;;;;;;;;;;;;;;7.06;100.00;95527.19;5105452;28;19933;-68
2024/02/27 02:25:56;;;;;;;;;;;;;;;7.04;100.00;95528.44;5105435;28;19932;-69
2024/02/27 02:28:22;;;;;;;;;;;;;;;7.02;100.00;95527.84;5105355;28;19956;-68
2024/02/27 02:30:47;;;;;;;;;;;;;;;6.99;100.00;95525.66;5105357;28;19936;-68
2024/02/27 02:33:13;;;;;;;;;;;;;;;6.96;100.00;95528.72;5105248;28;20108;-68
2024/02/27 02:35:43;;;;;;;;;;;;;;;6.93;100.00;95526.53;5105273;28;19943;-73
2024/02/27 02:38:09;;;;;;;;;;;;;;;6.89;100.00;95545.22;5105286;28;19950;-85
2024/02/27 02:40:35;;;;;;;;;;;;;;;6.85;100.00;95538.84;5105201;28;20211;-72
2024/02/27 02:43:01;;;;;;;;;;;;;;;6.84;100.00;95554.69;5105131;28;19943;-72
2024/02/27 02:45:27;;;;;;;;;;;;;;;6.81;100.00;95548.09;5105127;28;19938;-73
2024/02/27 02:47:53;;;;;;;;;;;;;;;6.79;100.00;95544.91;5104971;28;19948;-73
2024/02/27 02:50:19;;;;;;;;;;;;;;;6.77;100.00;95554.75;5104936;28;19998;-72
2024/02/27 02:52:45;;;;;;;;;;;;;;;6.73;100.00;95552.81;5105242;28;19947;-72
2024/02/27 02:55:10;;;;;;;;;;;;;;;6.69;100.00;95553.22;5104857;28;19941;-75
2024/02/27 02:57:37;;;;;;;;;;;;;;;6.68;100.00;95564.66;5104693;28;19925;-71
2024/02/27 03:00:06;;;;;;;;;;;;;;;6.65;100.00;95567.69;5104441;28;19950;-71
2024/02/27 03:02:31;;;;;;;;;;;;;;;6.64;100.00;95579.13;5104796;28;19945;-72
2024/02/27 03:04:58;;;;;;;;;;;;;;;6.61;100.00;95570.94;5104639;28;19939;-72
2024/02/27 03:07:24;;;;;;;;;;;;;;;6.58;100.00;95579.97;5104609;28;20150;-72
2024/02/27 03:09:51;;;;;;;;;;;;;;;6.55;100.00;95570.00;5104593;28;19957;-71
2024/02/27 03:12:17;;;;;;;;;;;;;;;6.54;100.00;95585.84;5105336;28;19940;-85
2024/02/27 03:14:45;;;;;;;;;;;;;;;6.52;100.00;95585.25;5104520;28;19936;-68
2024/02/27 03:17:13;;;;;;;;;;;;;;;6.50;100.00;95582.84;5104512;28;20120;-68
2024/02/27 03:19:39;;;;;;;;;;;;;;;6.47;100.00;95573.66;5104475;28;19934;-68
2024/02/27 03:22:05;;;;;;;;;;;;;;;6.46;100.00;95582.47;5104917;28;20246;-68
2024/02/27 03:24:32;;;;;;;;;;;;;;;6.44;100.00;95586.31;5104436;28;19933;-68
2024/02/27 03:26:58;;;;;;;;;;;;;;;6.41;100.00;95576.34;5104369;28;19954;-68
2024/02/27 03:29:23;;;;;;;;;;;;;;;6.43;100.00;95585.53;5086295;28;19951;-68
2024/02/27 03:31:49;;;;;;;;;;;;;;;6.41;100.00;95589.34;5105135;28;19939;-69
2024/02/27 03:34:15;;;;;;;;;;;;;;;6.43;100.00;95595.16;5104332;28;19957;-73
2024/02/27 03:36:41;;;;;;;;;;;;;;;6.40;100.00;95570.31;5104270;28;19940;-72
2024/02/27 03:39:07;;;;;;;;;;;;;;;6.39;100.00;95601.78;5104256;28;19940;-72
2024/02/27 03:41:33;;;;;;;;;;;;;;;6.37;100.00;95607.19;5104144;28;20002;-73
2024/02/27 03:43:59;;;;;;;;;;;;;;;6.35;100.00;95605.81;5104140;28;19962;-73
2024/02/27 03:46:25;;;;;;;;;;;;;;;6.33;100.00;95605.22;5104168;28;19939;-73
2024/02/27 03:48:51;;;;;;;;;;;;;;;6.32;100.00;95614.03;5086808;28;19958;-67
2024/02/27 03:51:17;;;;;;;;;;;;;;;6.30;100.00;95612.47;5104141;28;19942;-74
2024/02/27 03:53:43;;;;;;;;;;;;;;;6.32;100.00;95603.63;5104100;28;20002;-73
2024/02/27 03:56:09;;;;;;;;;;;;;;;6.30;100.00;95609.84;5104040;28;19934;-73
2024/02/27 03:58:36;;;;;;;;;;;;;;;6.28;100.00;95609.28;5103892;28;19969;-73
2024/02/27 04:01:02;;;;;;;;;;;;;;;6.27;100.00;95619.88;5104518;28;19944;-73
2024/02/27 04:03:27;;;;;;;;;;;;;;;6.26;100.00;95633.94;5104014;28;20171;-73
2024/02/27 04:05:53;;;;;;;;;;;;;;;6.26;100.00;95629.50;5104822;28;19941;-74
2024/02/27 04:08:19;;;;;;;;;;;;;;;6.25;100.00;95633.09;5103789;28;19961;-73
2024/02/27 04:10:45;;;;;;;;;;;;;;;6.24;100.00;95625.53;5104974;28;20245;-74
2024/02/27 04:13:11;;;;;;;;;;;;;;;6.24;100.00;95631.53;5108844;28;19935;-75
2024/02/27 04:15:37;;;;;;;;;;;;;;;6.24;100.00;95634.13;5108028;28;19936;-74
2024/02/27 04:18:03;;;;;;;;;;;;;;;6.24;100.00;95622.94;5107982;28;19931;-74
2024/02/27 04:20:29;;;;;;;;;;;;;;;6.25;100.00;95627.09;5107958;28;19935;-75
2024/02/27 04:22:54;;;;;;;;;;;;;;;6.26;100.00;95626.91;5107881;28;19973;-75
2024/02/27 04:25:20;;;;;;;;;;;;;;;6.25;100.00;95627.91;5107131;28;20224;-74
2024/02/27 04:27:46;;;;;;;;;;;;;;;6.24;100.00;95630.72;5108590;28;19935;-73
2024/02/27 04:30:12;;;;;;;;;;;;;;;6.23;100.00;95629.13;5107754;28;19932;-74
2024/02/27 04:32:38;;;;;;;;;;;;;;;6.23;100.00;95629.91;5108006;28;19963;-73
2024/02/27 04:35:05;;;;;;;;;;;;;;;6.23;100.00;95629.91;5108448;28;19999;-73
2024/02/27 04:37:31;;;;;;;;;;;;;;;6.20;100.00;95637.38;5107660;28;19939;-74
2024/02/27 04:39:57;;;;;;;;;;;;;;;6.17;100.00;95642.97;5108098;28;19934;-74
2024/02/27 04:42:23;;;;;;;;;;;;;;;6.13;100.00;95653.00;5107518;28;19971;-74
2024/02/27 04:44:49;;;;;;;;;;;;;;;6.10;100.00;95653.44;5108045;28;19937;-74
2024/02/27 04:47:15;;;;;;;;;;;;;;;6.08;100.00;95652.84;5108223;28;19938;-87
2024/02/27 04:49:41;;;;;;;;;;;;;;;6.07;100.00;95666.88;5107323;28;20143;-67
2024/02/27 04:52:07;;;;;;;;;;;;;;;6.04;100.00;95668.06;5107369;28;19930;-67
2024/02/27 04:54:36;;;;;;;;;;;;;;;6.03;100.00;95673.50;5107281;28;19937;-68
2024/02/27 04:57:02;;;;;;;;;;;;;;;6.02;100.00;95670.09;5107139;28;19999;-67
2024/02/27 04:59:28;;;;;;;;;;;;;;;6.02;100.00;95677.88;5107005;28;20038;-67
2024/02/27 05:01:54;;;;;;;;;;;;;;;6.03;100.00;95670.91;5107161;28;20218;-68
2024/02/27 05:04:20;;;;;;;;;;;;;;;6.01;100.00;95681.50;5107129;28;20009;-73
2024/02/27 05:06:45;;;;;;;;;;;;;;;5.98;100.00;95679.31;5107083;28;19933;-73
2024/02/27 05:09:11;;;;;;;;;;;;;;;5.96;100.00;95686.53;5107629;28;19962;-74
2024/02/27 05:11:37;;;;;;;;;;;;;;;5.97;100.00;95695.16;5107248;28;20137;-74
2024/02/27 05:14:03;;;;;;;;;;;;;;;5.96;100.00;95686.53;5106905;28;19938;-74
2024/02/27 05:16:29;;;;;;;;;;;;;;;5.96;100.00;95686.53;5106851;28;20216;-72
2024/02/27 05:18:55;;;;;;;;;;;;;;;5.97;100.00;95692.56;5106762;28;19932;-73
2024/02/27 05:21:20;;;;;;;;;;;;;;;6.00;100.00;95695.50;5106764;28;19945;-72
2024/02/27 05:23:46;;;;;;;;;;;;;;;6.01;100.00;95696.34;5106611;28;19940;-78
2024/02/27 05:26:15;;;;;;;;;;;;;;;5.98;100.00;95700.13;5106717;28;20262;-73
2024/02/27 05:28:41;;;;;;;;;;;;;;;6.01;100.00;95711.94;5107411;28;19952;-73
2024/02/27 05:31:21;;;;;;;;;;;;;;;6.02;100.00;95710.94;5106531;28;19956;-73
2024/02/27 05:33:47;;;;;;;;;;;;;;;6.03;100.00;95707.34;5107360;28;19946;-73
2024/02/27 05:36:13;;;;;;;;;;;;;;;6.03;100.00;95712.53;5106369;28;20001;-73
2024/02/27 05:38:38;;;;;;;;;;;;;;;6.01;100.00;95715.34;5106451;28;19945;-73
2024/02/27 05:41:04;;;;;;;;;;;;;;;5.98;100.00;95723.56;5106399;28;19932;-73
2024/02/27 05:43:30;;;;;;;;;;;;;;;5.97;100.00;95727.16;5106490;28;20144;-75
2024/02/27 05:45:57;;;;;;;;;;;;;;;5.95;100.00;95729.19;5106206;28;20137;-76
2024/02/27 05:48:23;;;;;;;;;;;;;;;5.90;100.00;95728.97;5106199;28;19953;-76
2024/02/27 05:50:49;;;;;;;;;;;;;;;5.87;100.00;95727.56;5106221;28;19931;-75
2024/02/27 05:53:15;;;;;;;;;;;;;;;5.85;100.00;95726.97;5106126;28;20097;-76
2024/02/27 05:55:41;;;;;;;;;;;;;;;5.84;100.00;95729.81;5106626;28;19940;-75
2024/02/27 05:58:07;;;;;;;;;;;;;;;5.80;100.00;95741.63;5105895;28;19963;-75
2024/02/27 06:00:33;;;;;;;;;;;;;;;5.75;100.00;95734.41;5106168;28;19939;-74
2024/02/27 06:02:58;;;;;;;;;;;;;;;5.73;100.00;95739.00;5106239;28;19925;-74
2024/02/27 06:05:25;;;;;;;;;;;;;;;5.70;100.00;95749.84;5105901;28;19928;-73
2024/02/27 06:07:51;;;;;;;;;;;;;;;5.68;100.00;95750.03;5105775;28;19924;-73
2024/02/27 06:10:17;;;;;;;;;;;;;;;5.69;100.00;95758.63;5105797;28;19949;-73
2024/02/27 06:12:43;;;;;;;;;;;;;;;5.68;100.00;95759.66;5105813;28;20060;-73
2024/02/27 06:15:09;;;;;;;;;;;;;;;5.67;100.00;95766.66;5105813;28;19940;-72
2024/02/27 06:17:35;;;;;;;;;;;;;;;5.68;100.00;95764.84;5105703;28;19937;-78
2024/02/27 06:20:04;;;;;;;;;;;;;;;5.68;100.00;95757.84;5105671;28;20225;-72
2024/02/27 06:22:31;;;;;;;;;;;;;;;5.66;100.00;95757.25;5105584;28;19938;-72
2024/02/27 06:24:57;;;;;;;;;;;;;;;5.64;100.00;95761.06;5106298;28;20114;-72
2024/02/27 06:27:22;;;;;;;;;;;;;;;5.62;100.00;95755.25;5105432;28;19936;-72
2024/02/27 06:29:49;;;;;;;;;;;;;;;5.59;100.00;95760.88;5105413;28;19953;-72
2024/02/27 06:32:15;;;;;;;;;;;;;;;5.57;100.00;95750.69;5105836;28;19932;-72
2024/02/27 06:34:41;;;;;;;;;;;;;;;5.57;100.00;95760.28;5104372;28;19942;-72
2024/02/27 06:37:07;;;;;;;;;;;;;;;5.54;100.00;95756.25;5105278;28;19936;-77
2024/02/27 06:39:33;;;;;;;;;;;;;;;5.51;100.00;95742.88;5106046;28;19933;-74
2024/02/27 06:41:59;;;;;;;;;;;;;;;5.50;100.00;95744.66;5105298;28;19932;-75
2024/02/27 06:44:25;;;;;;;;;;;;;;;5.50;100.00;95744.66;5105762;28;19935;-74
2024/02/27 06:46:51;;;;;;;;;;;;;;;5.48;100.00;95742.28;5105130;28;19936;-74
2024/02/27 06:49:17;;;;;;;;;;;;;;;5.48;100.00;95749.28;5105076;28;19953;-74
2024/02/27 06:51:44;;;;;;;;;;;;;;;5.47;100.00;95758.09;5105088;28;19981;-75
2024/02/27 06:54:10;;;;;;;;;;;;;;;5.47;100.00;95769.28;5105111;28;19969;-68
2024/02/27 06:56:43;;;;;;;;;;;;;;;5.47;100.00;95781.50;5102692;28;19945;-74
2024/02/27 06:59:09;;;;;;;;;;;;;;;5.47;100.00;95778.88;5101604;28;19986;-74
2024/02/27 07:01:35;;;;;;;;;;;;;;;5.47;100.00;95784.88;5102105;28;20216;-73
2024/02/27 07:04:01;;;;;;;;;;;;;;;5.47;100.00;95782.28;5101557;28;20213;-73
2024/02/27 07:06:27;;;;;;;;;;;;;;;5.46;100.00;95783.31;5101563;28;19983;-73
2024/02/27 07:08:53;;;;;;;;;;;;;;;5.46;100.00;95787.72;5101479;28;20263;-73
2024/02/27 07:11:18;;;;;;;;;;;;;;;5.46;100.00;95788.50;5101467;28;20224;-71
2024/02/27 07:13:44;;;;;;;;;;;;;;;5.48;100.00;95803.88;5101434;28;20121;-72
2024/02/27 07:16:11;;;;;;;;;;;;;;;5.49;100.00;95810.69;5101347;28;19971;-73
2024/02/27 07:18:37;;;;;;;;;;;;;;;5.50;100.00;95814.88;5101174;28;19939;-74
2024/02/27 07:21:03;;;;;;;;;;;;;;;5.53;100.00;95822.28;5101669;28;19998;-75
2024/02/27 07:23:29;;;;;;;;;;;;;;;5.54;100.00;95817.88;5100984;28;20128;-75
2024/02/27 07:25:55;;;;;;;;;;;;;;;5.55;100.00;95815.09;5101569;28;19951;-76
2024/02/27 07:28:21;;;;;;;;;;;;;;;5.56;100.00;95824.47;5100989;28;19938;-76
2024/02/27 07:30:48;;;;;;;;;;;;;;;5.59;100.00;95825.91;5100933;28;20013;-68
2024/02/27 07:33:14;;;;;;;;;;;;;;;5.62;100.00;95825.50;5100786;28;19934;-74
2024/02/27 07:35:39;;;;;;;;;;;;;;;5.65;100.00;95819.91;5100712;28;20350;-74
2024/02/27 07:38:05;;;;;;;;;;;;;;;5.68;100.00;95835.09;5100780;28;20004;-73
2024/02/27 07:40:31;;;;;;;;;;;;;;;5.69;100.00;95836.66;5101509;28;19948;-73
2024/02/27 07:42:57;;;;;;;;;;;;;;;5.74;100.00;95839.50;5100683;28;19938;-75
2024/02/27 07:45:23;;;;;;;;;;;;;;;5.81;100.00;95842.88;5101473;28;19937;-74
2024/02/27 07:47:49;;;;;;;;;;;;;;;5.87;100.00;95846.47;5100599;28;19930;-74
2024/02/27 07:50:15;;;;;;;;;;;;;;;5.94;100.00;95849.84;5100698;28;20204;-67
2024/02/27 07:52:41;;;;;;;;;;;;;;;6.01;100.00;95847.28;5100575;28;20222;-67
2024/02/27 07:55:07;;;;;;;;;;;;;;;6.05;100.00;95838.88;5107592;28;19964;-67
2024/02/27 07:57:33;;;;;;;;;;;;;;;6.09;100.00;95836.66;5121476;28;20211;-67
2024/02/27 07:59:59;;;;;;;;;;;;;;;6.12;100.00;95841.44;5120623;28;19939;-67
2024/02/27 08:02:25;;;;;;;;;;;;;;;6.19;100.00;95844.81;5120435;28;19937;-67
2024/02/27 08:04:51;;;;;;;;;;;;;;;6.21;100.00;95837.59;5120451;28;19933;-67
2024/02/27 08:07:17;;;;;;;;;;;;;;;6.24;100.00;95839.03;5111516;28;19937;-69
2024/02/27 08:09:43;;;;;;;;;;;;;;;6.26;100.00;95837.81;5106925;28;19958;-80
2024/02/27 08:12:09;;;;;;;;;;;;;;;6.28;100.00;95835.78;5106767;28;20241;-74
2024/02/27 08:14:34;;;;;;;;;;;;;;;6.32;100.00;95843.19;5106507;28;20213;-74
2024/02/27 08:17:01;;;;;;;;;;;;;;;6.40;100.00;95840.34;5106579;28;19943;-74
2024/02/27 08:19:27;;;;;;;;;;;;;;;6.45;100.00;95840.56;5107119;28;19937;-74
2024/02/27 08:21:53;;;;;;;;;;;;;;;6.55;100.00;95837.50;5106584;28;20048;-74
2024/02/27 08:24:19;;;;;;;;;;;;;;;6.64;100.00;95834.44;5106490;28;20260;-74
2024/02/27 08:26:45;;;;;;;;;;;;;;;6.77;100.00;95830.97;5106502;28;19935;-67
2024/02/27 08:29:11;;;;;;;;;;;;;;;6.91;100.00;95818.69;5106365;28;19936;-75
2024/02/27 08:31:38;;;;;;;;;;;;;;;7.07;100.00;95836.41;5106201;28;19938;-74
2024/02/27 08:34:06;;;;;;;;;;;;;;;7.13;100.00;95819.13;5107395;28;19939;-75
2024/02/27 08:36:32;;;;;;;;;;;;;;;7.17;100.00;95828.13;5105653;28;19953;-75
2024/02/27 08:38:59;;;;;;;;;;;;;;;7.19;100.00;95825.31;5105389;28;20232;-74
2024/02/27 08:41:25;;;;;;;;;;;;;;;7.22;100.00;95820.44;5107061;28;19926;-74
2024/02/27 08:43:51;;;;;;;;;;;;;;;7.23;100.00;95821.28;5106997;28;19985;-68
2024/02/27 08:46:17;;;;;;;;;;;;;;;7.21;100.00;95818.88;5106298;28;19977;-76
2024/02/27 08:48:44;;;;;;;;;;;;;;;7.25;100.00;95820.03;5105248;28;19937;-67
2024/02/27 08:51:09;;;;;;;;;;;;;;;7.35;100.00;95824.78;5106568;28;19931;-67
2024/02/27 08:53:36;;;;;;;;;;;;;;;7.40;100.00;95826.75;5106583;28;19968;-67
2024/02/27 08:56:03;;;;;;;;;;;;;;;7.42;100.00;95817.69;5105915;28;19972;-67
2024/02/27 08:58:29;;;;;;;;;;;;;;;7.43;100.00;95827.16;5104925;28;20216;-68
2024/02/27 09:00:56;;;;;;;;;;;;;;;7.47;100.00;95850.97;5106583;28;19949;-67
2024/02/27 09:03:22;;;;;;;;;;;;;;;7.53;100.00;95830.03;5106005;28;19932;-72
2024/02/27 09:05:48;;;;;;;;;;;;;;;7.55;100.00;95818.63;5104838;28;19980;-74
2024/02/27 09:08:14;;;;;;;;;;;;;;;7.55;100.00;95821.22;5105459;28;19956;-74
2024/02/27 09:10:43;;;;;;;;;;;;;;;7.55;100.00;95816.78;5105775;28;19933;-74
2024/02/27 09:13:08;;;;;;;;;;;;;;;7.59;100.00;95820.56;5105778;28;19937;-74
2024/02/27 09:15:34;;;;;;;;;;;;;;;7.63;100.00;95813.13;5104784;28;19991;-74
2024/02/27 09:18:00;;;;;;;;;;;;;;;7.65;100.00;95814.50;5105488;28;19936;-74
2024/02/27 09:20:27;;;;;;;;;;;;;;;7.66;100.00;95797.03;5105491;28;19940;-67
2024/02/27 09:22:53;;;;;;;;;;;;;;;7.65;100.00;95813.72;5105635;28;20142;-74
2024/02/27 09:25:18;;;;;;;;;;;;;;;7.60;100.00;95806.53;5105544;28;19936;-67
2024/02/27 09:27:44;;;;;;;;;;;;;;;7.56;100.00;95809.75;5105483;28;19978;-67
2024/02/27 09:30:10;;;;;;;;;;;;;;;7.55;100.00;95821.22;5105488;28;19940;-67
2024/02/27 09:32:36;;;;;;;;;;;;;;;7.52;100.00;95825.84;5105402;28;19944;-67
2024/02/27 09:35:03;;;;;;;;;;;;;;;7.48;100.00;95832.50;5106084;28;20205;-66
2024/02/27 09:37:28;;;;;;;;;;;;;;;7.48;100.00;95831.72;5105276;28;20241;-67
2024/02/27 09:39:56;;;;;;;;;;;;;;;7.45;100.00;95825.09;5105353;28;19940;-73
2024/02/27 09:42:23;;;;;;;;;;;;;;;7.43;100.00;95829.75;5104720;28;19941;-72
2024/02/27 09:44:52;;;;;;;;;;;;;;;7.43;100.00;95832.38;5105207;28;19938;-71
2024/02/27 09:47:18;;;;;;;;;;;;;;;7.46;100.00;95831.13;5105213;28;19941;-73
2024/02/27 09:49:45;;;;;;;;;;;;;;;7.45;100.00;95842.56;5105138;28;19935;-72
2024/02/27 09:52:11;;;;;;;;;;;;;;;7.44;100.00;95841.78;5105063;28;19996;-72
2024/02/27 09:54:38;;;;;;;;;;;;;;;7.46;100.00;95844.19;5105271;28;19962;-72
2024/02/27 09:57:04;;;;;;;;;;;;;;;7.46;100.00;95847.56;5105482;28;19954;-74
2024/02/27 09:59:31;;;;;;;;;;;;;;;7.48;100.00;95849.97;5104985;28;20127;-73
2024/02/27 10:02:13;;;;;;;;;;;;;;;7.50;100.00;95847.97;5105436;28;19946;-74
2024/02/27 10:04:40;;;;;;;;;;;;;;;7.52;100.00;95849.34;5105503;28;19943;-74
2024/02/27 10:07:06;;;;;;;;;;;;;;;7.49;100.00;95859.38;5087775;28;20208;-74
2024/02/27 10:09:34;;;;;;;;;;;;;;;7.48;100.00;95856.00;5103674;28;19945;-74
2024/02/27 10:12:01;;;;;;;;;;;;;;;7.47;100.00;95856.19;5104613;28;19937;-75
2024/02/27 10:14:31;;;;;;;;;;;;;;;7.48;100.00;95876.06;5104610;28;19934;-75
2024/02/27 10:16:57;;;;;;;;;;;;;;;7.51;100.00;95871.19;5104599;28;19950;-72
2024/02/27 10:19:25;;;;;;;;;;;;;;;7.52;100.00;95869.41;5104678;28;20008;-69
2024/02/27 10:21:51;;;;;;;;;;;;;;;7.54;100.00;95880.44;5105268;28;19943;-68
2024/02/27 10:24:28;;;;;;;;;;;;;;;7.52;100.00;95890.28;5104488;28;19933;-68
2024/02/27 10:26:54;;;;;;;;;;;;;;;7.49;100.00;95888.09;5104319;28;19941;-68
2024/02/27 10:29:21;;;;;;;;;;;;;;;7.49;100.00;95895.91;5104680;28;19940;-68
2024/02/27 10:31:47;;;;;;;;;;;;;;;7.51;100.00;95891.28;5104336;28;20127;-68
2024/02/27 10:34:13;;;;;;;;;;;;;;;7.51;100.00;95894.69;5105138;28;20218;-73
2024/02/27 10:36:39;;;;;;;;;;;;;;;7.55;100.00;95899.50;5105020;28;19954;-72
2024/02/27 10:39:09;;;;;;;;;;;;;;;7.58;100.00;95886.00;5103993;28;19949;-72
2024/02/27 10:41:38;;;;;;;;;;;;;;;7.61;100.00;95885.59;5104541;28;19941;-72
2024/02/27 10:44:07;;;;;;;;;;;;;;;7.71;100.00;95897.16;5104223;28;20180;-72
2024/02/27 10:46:35;;;;;;;;;;;;;;;7.76;100.00;95890.50;5104156;28;19933;-72
2024/02/27 10:49:01;;;;;;;;;;;;;;;7.81;100.00;95878.41;5103649;28;19931;-72
2024/02/27 10:51:27;;;;;;;;;;;;;;;7.85;100.00;95879.59;5104694;28;19940;-72
2024/02/27 10:53:55;;;;;;;;;;;;;;;7.90;100.00;95881.56;5104182;28;19939;-72
2024/02/27 10:56:22;;;;;;;;;;;;;;;7.98;100.00;95877.84;5103907;28;19969;-67
2024/02/27 10:58:48;;;;;;;;;;;;;;;8.02;100.00;95877.22;5104029;28;19938;-67
2024/02/27 11:01:15;;;;;;;;;;;;;;;8.04;100.00;95885.66;5103998;28;20222;-67
2024/02/27 11:03:41;;;;;;;;;;;;;;;8.07;100.00;95877.38;5104022;28;19936;-67
2024/02/27 11:06:13;;;;;;;;;;;;;;;8.09;100.00;95883.16;5104788;28;19923;-67
2024/02/27 11:08:41;;;;;;;;;;;;;;;8.10;100.00;95878.75;5104672;28;19961;-67
2024/02/27 11:11:07;;;;;;;;;;;;;;;8.09;100.00;95885.78;5104250;28;19934;-72
2024/02/27 11:13:36;;;;;;;;;;;;;;;8.11;100.00;95886.38;5103685;28;20132;-72
2024/02/27 11:16:03;;;;;;;;;;;;;;;8.17;100.00;95884.72;5103156;28;19955;-79
2024/02/27 11:18:34;;;;;;;;;;;;;;;8.25;100.00;95874.00;5104052;28;20124;-80
2024/02/27 11:21:02;;;;;;;;;;;;;;;8.30;100.00;95868.91;5103961;28;19956;-80
2024/02/27 11:23:29;;;;;;;;;;;;;;;8.38;100.00;95882.69;5104077;28;19938;-80
2024/02/27 11:25:56;;;;;;;;;;;;;;;8.43;100.00;95865.38;5103957;28;19937;-79
2024/02/27 11:28:23;;;;;;;;;;;;;;;8.46;100.00;95864.94;5102708;28;19940;-80
2024/02/27 11:30:49;;;;;;;;;;;;;;;8.52;100.00;95868.47;5104192;28;19932;-67
2024/02/27 11:33:20;;;;;;;;;;;;;;;8.65;100.00;95862.28;5103837;28;19944;-74
2024/02/27 11:35:46;;;;;;;;;;;;;;;8.72;100.00;95863.81;5102586;28;20235;-75
2024/02/27 11:38:13;;;;;;;;;;;;;;;8.76;100.00;95864.19;5103709;28;19938;-75
2024/02/27 11:40:50;;;;;;;;;;;;;;;8.69;100.00;95853.00;5103675;28;19946;-74
2024/02/27 11:43:16;;;;;;;;;;;;;;;8.61;100.00;95858.53;5106597;28;19962;-74
2024/02/27 11:45:42;;;;;;;;;;;;;;;8.56;100.00;95864.41;5106275;28;20183;-74
2024/02/27 11:48:08;;;;;;;;;;;;;;;8.48;100.00;95873.38;5108274;28;19939;-80
2024/02/27 11:50:37;;;;;;;;;;;;;;;8.45;100.00;95875.59;5107416;28;19961;-68
2024/02/27 11:53:15;;;;;;;;;;;;;;;8.53;100.00;95877.94;5108181;28;20016;-68
2024/02/27 11:55:41;;;;;;;;;;;;;;;8.56;100.00;95871.47;5106995;28;20156;-68
2024/02/27 11:58:07;;;;;;;;;;;;;;;8.57;100.00;95873.88;5107229;28;19948;-68
2024/02/27 12:00:34;;;;;;;;;;;;;;;8.60;100.00;95881.25;5107135;28;20255;-69
2024/02/27 12:03:00;;;;;;;;;;;;;;;8.57;100.00;95886.13;5107692;28;19939;-68
2024/02/27 12:05:26;;;;;;;;;;;;;;;8.54;100.00;95890.75;5107126;28;20137;-68
2024/02/27 12:07:57;;;;;;;;;;;;;;;8.56;100.00;95923.72;5107067;28;20027;-72
2024/02/27 12:10:23;;;;;;;;;;;;;;;8.85;100.00;95956.97;5107919;28;19948;-74
2024/02/27 12:12:49;;;;;;;;;;;;;;;9.34;100.00;95943.91;5107819;28;19940;-73
2024/02/27 12:15:16;;;;;;;;;;;;;;;9.48;100.00;95858.94;5107216;28;19963;-74
2024/02/27 12:17:42;;;;;;;;;;;;;;;9.38;100.00;95861.31;5106872;28;20007;-73
2024/02/27 12:20:09;;;;;;;;;;;;;;;9.19;100.00;95860.59;5107212;28;20228;-74
2024/02/27 12:22:35;;;;;;;;;;;;;;;9.01;100.00;95874.53;5106842;28;19940;-73
2024/02/27 12:25:01;;;;;;;;;;;;;;;8.86;100.00;95884.56;5106827;28;19935;-73
2024/02/27 12:27:27;;;;;;;;;;;;;;;8.74;100.00;95900.22;5106946;28;20325;-74
2024/02/27 12:29:53;;;;;;;;;;;;;;;8.66;100.00;95898.69;5106713;28;20199;-74
2024/02/27 12:32:20;;;;;;;;;;;;;;;8.60;100.00;95888.31;5106859;28;20006;-74
2024/02/27 12:34:46;;;;;;;;;;;;;;;8.58;100.00;95883.28;5106647;28;19959;-74
2024/02/27 12:37:12;;;;;;;;;;;;;;;8.53;100.00;95876.13;5106477;28;19952;-74
2024/02/27 12:39:38;;;;;;;;;;;;;;;8.47;100.00;95865.75;5106515;28;19939;-73
2024/02/27 12:42:04;;;;;;;;;;;;;;;8.46;100.00;95864.13;5106997;28;19934;-74
2024/02/27 12:44:30;;;;;;;;;;;;;;;8.47;100.00;95861.31;5106372;28;19935;-73